Time;durP1;ratioP1;P1;durP2;ratioP2;P2;SDS_P1;SDS_P2;PMS_P1;PMS_P2;Temp;Humidity;BMP_temperature;BMP_pressure;BME280_temperature;BME280_humidity;BME280_pressure;Samples;Min_cycle;Max_cycle;Signal;HPM_P1;HPM_P2
2023/09/09 00:00:09;;;;;;;8.50;4.00;;;;;;;13.38;63.31;101526.22;107286;1260;108326;-64
2023/09/09 00:03:01;;;;;;;8.80;3.50;;;;;;;13.31;63.36;101522.65;107383;1254;99198;-63
2023/09/09 00:05:30;;;;;;;13.30;4.00;;;;;;;13.29;63.43;101522.11;107406;1254;99527;-62
2023/09/09 00:07:59;;;;;;;11.00;4.00;;;;;;;13.28;63.64;101520.89;107403;1254;113119;-63
2023/09/09 00:10:29;;;;;;;12.10;3.40;;;;;;;13.26;63.69;101521.11;107400;1254;109029;-62
2023/09/09 00:12:58;;;;;;;13.10;4.20;;;;;;;13.25;63.73;101521.95;107372;1254;108005;-64
2023/09/09 00:15:26;;;;;;;12.40;3.80;;;;;;;13.27;63.92;101523.00;107309;1258;99188;-63
2023/09/09 00:17:54;;;;;;;11.10;3.80;;;;;;;13.28;64.03;101519.98;107386;1254;99175;-63
2023/09/09 00:20:41;;;;;;;14.30;3.60;;;;;;;13.26;64.28;101517.64;107381;1254;113653;-63
2023/09/09 00:23:09;;;;;;;14.20;3.90;;;;;;;13.24;64.16;101517.70;107395;1258;108873;-62
2023/09/09 00:25:39;;;;;;;8.70;3.80;;;;;;;13.23;64.25;101514.15;107390;1254;108561;-62
2023/09/09 00:28:10;;;;;;;20.00;3.50;;;;;;;13.23;64.54;101514.68;107394;1254;99288;-63
2023/09/09 00:30:41;;;;;;;13.00;3.20;;;;;;;13.22;65.29;101516.64;107417;1254;99796;-63
2023/09/09 00:33:09;;;;;;;9.40;3.40;;;;;;;13.17;65.85;101515.77;107347;1254;113087;-63
2023/09/09 00:35:39;;;;;;;12.90;3.10;;;;;;;13.13;65.52;101520.19;107447;1254;109129;-63
2023/09/09 00:38:11;;;;;;;11.60;3.40;;;;;;;13.14;65.52;101517.80;107389;1254;107591;-63
2023/09/09 00:40:46;;;;;;;10.10;3.50;;;;;;;13.13;65.75;101513.97;107371;1254;99203;-63
2023/09/09 00:43:15;;;;;;;8.30;3.60;;;;;;;13.06;65.92;101511.45;107300;1254;99208;-63
2023/09/09 00:45:44;;;;;;;9.70;3.80;;;;;;;13.02;65.79;101506.79;107377;1254;113699;-63
2023/09/09 00:48:12;;;;;;;10.40;3.20;;;;;;;13.01;65.99;101507.98;107389;1254;110096;-63
2023/09/09 00:50:41;;;;;;;11.30;3.20;;;;;;;13.00;65.76;101506.05;107357;1254;108140;-63
2023/09/09 00:53:09;;;;;;;11.60;3.30;;;;;;;13.02;65.82;101500.91;107345;1254;99260;-63
2023/09/09 00:55:39;;;;;;;12.50;3.40;;;;;;;13.01;65.81;101501.64;107257;1254;99083;-63
2023/09/09 00:58:07;;;;;;;9.40;2.80;;;;;;;13.01;65.82;101499.14;107405;1254;112799;-63
2023/09/09 01:00:37;;;;;;;13.20;3.10;;;;;;;12.98;66.10;101496.85;107407;1254;109245;-63
2023/09/09 01:03:06;;;;;;;13.70;3.10;;;;;;;12.95;66.24;101494.80;107392;1254;106558;-63
2023/09/09 01:05:38;;;;;;;11.50;2.80;;;;;;;12.93;66.54;101492.67;107376;1254;99304;-63
2023/09/09 01:08:06;;;;;;;10.20;3.30;;;;;;;12.91;66.75;101492.63;107299;1254;99109;-61
2023/09/09 01:10:35;;;;;;;10.60;2.40;;;;;;;12.91;67.31;101495.56;107340;1258;113319;-62
2023/09/09 01:13:03;;;;;;;16.20;3.50;;;;;;;12.90;66.93;101495.27;107407;1254;109795;-63
2023/09/09 01:15:31;;;;;;;4.20;2.60;;;;;;;12.88;66.72;101492.73;107384;1257;108790;-62
2023/09/09 01:18:01;;;;;;;8.50;3.60;;;;;;;12.87;66.68;101494.98;107363;1254;99180;-63
2023/09/09 01:20:33;;;;;;;9.70;2.90;;;;;;;12.86;66.94;101495.05;107385;1258;99067;-63
2023/09/09 01:23:02;;;;;;;8.00;2.80;;;;;;;12.83;67.08;101497.63;107380;1254;114045;-63
2023/09/09 01:25:30;;;;;;;10.40;3.10;;;;;;;12.81;67.05;101496.00;107369;1254;110075;-63
2023/09/09 01:27:59;;;;;;;8.60;2.60;;;;;;;12.80;67.18;101494.98;107183;1261;107131;-62
2023/09/09 01:30:27;;;;;;;10.30;2.90;;;;;;;12.77;67.36;101492.02;107301;1256;99198;-63
2023/09/09 01:32:56;;;;;;;12.20;3.40;;;;;;;12.76;67.45;101491.40;107377;1254;99717;-63
2023/09/09 01:35:24;;;;;;;8.10;3.00;;;;;;;12.76;67.43;101495.38;107424;1254;113105;-62
2023/09/09 01:37:53;;;;;;;6.60;3.10;;;;;;;12.76;67.24;101497.38;107378;1254;108807;-64
2023/09/09 01:40:22;;;;;;;6.00;3.00;;;;;;;12.76;67.58;101499.33;107393;1254;106359;-63
2023/09/09 01:42:50;;;;;;;9.50;3.30;;;;;;;12.77;67.46;101501.35;107374;1254;99178;-63
2023/09/09 01:45:19;;;;;;;9.00;3.20;;;;;;;12.78;67.56;101499.84;107347;1254;99178;-63
2023/09/09 01:47:47;;;;;;;8.30;3.50;;;;;;;12.81;67.64;101501.79;107309;1254;113379;-64
2023/09/09 01:50:16;;;;;;;15.30;2.80;;;;;;;12.81;67.84;101499.81;107406;1254;108549;-63
2023/09/09 01:52:46;;;;;;;8.70;3.30;;;;;;;12.78;68.07;101504.19;107364;1254;107317;-63
2023/09/09 01:55:14;;;;;;;15.00;3.50;;;;;;;12.75;68.17;101499.91;107397;1254;99176;-63
2023/09/09 01:57:43;;;;;;;9.70;3.40;;;;;;;12.74;68.01;101500.61;107269;1253;99242;-64
2023/09/09 02:00:12;;;;;;;9.70;3.80;;;;;;;12.73;68.07;101503.16;107394;1254;113116;-63
2023/09/09 02:02:40;;;;;;;12.60;3.80;;;;;;;12.74;68.25;101501.82;107431;1254;108380;-63
2023/09/09 02:05:10;;;;;;;11.60;3.20;;;;;;;12.74;67.96;101496.61;107276;1260;108666;-63
2023/09/09 02:07:39;;;;;;;11.30;2.60;;;;;;;12.73;68.12;101496.88;107374;1254;99172;-63
2023/09/09 02:10:08;;;;;;;7.90;3.20;;;;;;;12.73;68.50;101495.80;107296;1260;99087;-63
2023/09/09 02:12:41;;;;;;;10.70;3.60;;;;;;;12.73;68.51;101493.49;107420;1254;113244;-63
2023/09/09 02:15:11;;;;;;;7.30;3.40;;;;;;;12.71;68.13;101494.20;107317;1254;109677;-63
2023/09/09 02:17:39;;;;;;;11.40;3.30;;;;;;;12.71;67.88;101492.20;107390;1254;107626;-63
2023/09/09 02:20:09;;;;;;;10.90;2.90;;;;;;;12.69;68.02;101491.94;107276;1254;99310;-63
2023/09/09 02:22:38;;;;;;;8.20;3.20;;;;;;;12.67;68.42;101489.66;107408;1254;99074;-63
2023/09/09 02:25:08;;;;;;;10.10;3.00;;;;;;;12.65;68.56;101491.26;107425;1254;113400;-63
2023/09/09 02:27:36;;;;;;;7.20;3.10;;;;;;;12.63;68.54;101488.86;107278;1254;108420;-63
2023/09/09 02:30:05;;;;;;;7.80;2.80;;;;;;;12.61;68.86;101488.77;107367;1254;107547;-63
2023/09/09 02:32:34;;;;;;;5.70;2.80;;;;;;;12.57;69.04;101485.69;107377;1254;99249;-63
2023/09/09 02:35:03;;;;;;;8.80;2.70;;;;;;;12.54;68.91;101486.61;107412;1254;99217;-62
2023/09/09 02:37:32;;;;;;;6.80;2.80;;;;;;;12.52;68.82;101488.54;107432;1254;112407;-63
2023/09/09 02:40:01;;;;;;;16.90;3.30;;;;;;;12.51;68.75;101488.63;107435;1254;108416;-63
2023/09/09 02:42:29;;;;;;;13.30;3.10;;;;;;;12.52;68.65;101488.63;107253;1254;107282;-63
2023/09/09 02:44:58;;;;;;;8.00;3.40;;;;;;;12.49;68.77;101490.60;107266;1258;99150;-63
2023/09/09 02:47:27;;;;;;;9.60;3.20;;;;;;;12.48;68.75;101489.30;107350;1254;99115;-62
2023/09/09 02:49:55;;;;;;;14.20;3.00;;;;;;;12.46;68.87;101495.40;107372;1254;112995;-63
2023/09/09 02:52:24;;;;;;;23.10;9.70;;;;;;;12.45;68.69;101492.61;107278;1257;109994;-63
2023/09/09 02:54:52;;;;;;;7.00;2.80;;;;;;;12.44;68.78;101492.54;107228;1258;107823;-62
2023/09/09 02:57:21;;;;;;;13.20;3.10;;;;;;;12.42;68.75;101492.47;107241;1254;99646;-63
2023/09/09 02:59:49;;;;;;;15.80;3.80;;;;;;;12.42;68.73;101488.48;107326;1254;99267;-63
2023/09/09 03:02:19;;;;;;;10.00;4.00;;;;;;;12.42;68.68;101492.33;107269;1254;114372;-64
2023/09/09 03:04:48;;;;;;;7.10;3.20;;;;;;;12.41;68.77;101489.36;107309;1254;109708;-61
2023/09/09 03:07:16;;;;;;;13.00;3.20;;;;;;;12.38;68.74;101488.86;107327;1256;107598;-61
2023/09/09 03:09:45;;;;;;;11.80;2.80;;;;;;;12.34;68.88;101485.42;107229;1257;99247;-62
2023/09/09 03:12:20;;;;;;;11.40;3.00;;;;;;;12.32;68.84;101489.02;107272;1254;99726;-62
2023/09/09 03:14:49;;;;;;;9.30;3.60;;;;;;;12.28;68.98;101490.65;107252;1254;112994;-62
2023/09/09 03:17:17;;;;;;;16.00;4.30;;;;;;;12.24;69.03;101490.82;107376;1254;109684;-64
2023/09/09 03:19:46;;;;;;;7.60;3.40;;;;;;;12.22;69.00;101490.41;107356;1254;108392;-63
2023/09/09 03:22:15;;;;;;;6.20;3.00;;;;;;;12.21;69.04;101491.39;107332;1257;99169;-62
2023/09/09 03:24:44;;;;;;;12.90;3.10;;;;;;;12.20;69.33;101491.22;107277;1257;99826;-63
2023/09/09 03:27:12;;;;;;;12.00;3.70;;;;;;;12.21;69.35;101488.51;107194;1256;112820;-63
2023/09/09 03:29:41;;;;;;;11.30;2.90;;;;;;;12.19;69.50;101495.47;107412;1254;109271;-62
2023/09/09 03:32:09;;;;;;;8.70;3.00;;;;;;;12.17;69.42;101494.74;107307;1259;108661;-62
2023/09/09 03:34:38;;;;;;;14.10;3.50;;;;;;;12.15;69.63;101496.55;107335;1258;99188;-63
2023/09/09 03:37:07;;;;;;;8.30;3.80;;;;;;;12.15;69.69;101493.70;107326;1257;99261;-63
2023/09/09 03:39:36;;;;;;;6.50;2.80;;;;;;;12.15;69.88;101490.44;107354;1257;112610;-63
2023/09/09 03:42:05;;;;;;;8.30;3.10;;;;;;;12.14;69.87;101491.09;107350;1257;109473;-63
2023/09/09 03:44:33;;;;;;;12.60;3.40;;;;;;;12.14;69.88;101490.52;107363;1254;107004;-62
2023/09/09 03:47:02;;;;;;;8.70;3.00;;;;;;;12.16;69.97;101488.05;107251;1254;99298;-62
2023/09/09 03:49:30;;;;;;;10.00;3.00;;;;;;;12.15;70.54;101485.24;107297;1254;100916;-64
2023/09/09 03:51:58;;;;;;;8.50;3.50;;;;;;;12.14;70.26;101484.95;107195;1257;112821;-61
2023/09/09 03:54:27;;;;;;;13.40;3.50;;;;;;;12.11;70.28;101487.87;107238;1257;109971;-63
2023/09/09 03:56:55;;;;;;;14.60;3.80;;;;;;;12.11;70.42;101487.85;107279;1254;107950;-62
2023/09/09 03:59:29;;;;;;;9.00;4.10;;;;;;;12.13;70.37;101488.10;107389;1254;99170;-62
2023/09/09 04:01:58;;;;;;;;;;;;;;;12.14;70.27;101487.29;107417;1255;99250;-63
2023/09/09 04:04:26;;;;;;;12.80;3.70;;;;;;;12.12;70.23;101484.20;107370;1254;112111;-62
2023/09/09 04:06:55;;;;;;;10.10;3.60;;;;;;;12.13;70.50;101478.77;107354;1257;108951;-64
2023/09/09 04:09:26;;;;;;;10.50;3.80;;;;;;;12.13;70.44;101476.95;107347;1258;108267;-61
2023/09/09 04:11:55;;;;;;;7.20;3.30;;;;;;;12.14;70.42;101482.40;107343;1257;99176;-62
2023/09/09 04:14:24;;;;;;;13.20;2.80;;;;;;;12.18;70.42;101476.16;107387;1258;99156;-62
2023/09/09 04:16:52;;;;;;;12.10;4.00;;;;;;;12.22;70.54;101476.73;107331;1257;112445;-63
2023/09/09 04:19:20;;;;;;;10.90;3.70;;;;;;;12.27;70.46;101478.42;107379;1257;109746;-63
2023/09/09 04:21:51;;;;;;;9.20;3.80;;;;;;;12.30;70.34;101481.27;107349;1257;107634;-64
2023/09/09 04:24:20;;;;;;;10.30;3.20;;;;;;;12.34;70.49;101476.94;107314;1258;99195;-62
2023/09/09 04:26:48;;;;;;;15.50;3.90;;;;;;;12.41;70.41;101479.29;107349;1257;99246;-62
2023/09/09 04:29:17;;;;;;;8.70;3.70;;;;;;;12.45;70.34;101476.05;107216;1257;113092;-63
2023/09/09 04:31:46;;;;;;;9.80;3.70;;;;;;;12.51;70.34;101479.48;107227;1254;109283;-63
2023/09/09 04:34:15;;;;;;;10.20;3.10;;;;;;;12.56;70.20;101481.95;107369;1255;108595;-62
2023/09/09 04:36:45;;;;;;;11.40;3.60;;;;;;;12.60;70.07;101486.45;107357;1257;99284;-63
2023/09/09 04:39:16;;;;;;;11.60;3.80;;;;;;;12.66;70.17;101487.02;107388;1254;99182;-62
2023/09/09 04:41:45;;;;;;;8.80;3.60;;;;;;;12.73;70.07;101486.82;107377;1254;112429;-64
2023/09/09 04:44:14;;;;;;;5.90;3.90;;;;;;;12.78;70.09;101484.33;107376;1259;108325;-63
2023/09/09 04:46:42;;;;;;;15.10;4.70;;;;;;;12.85;69.75;101483.59;107349;1258;107237;-63
2023/09/09 04:49:11;;;;;;;11.30;4.40;;;;;;;12.93;69.61;101484.89;107315;1259;99089;-63
2023/09/09 04:51:40;;;;;;;13.50;4.50;;;;;;;13.00;69.28;101484.81;107384;1258;99729;-63
2023/09/09 04:54:09;;;;;;;19.10;4.80;;;;;;;13.08;69.22;101486.44;107249;1257;113123;-63
2023/09/09 04:56:37;;;;;;;16.20;4.50;;;;;;;13.17;68.79;101480.63;107212;1256;109466;-62
2023/09/09 04:59:05;;;;;;;16.70;5.60;;;;;;;13.25;68.52;101479.04;107313;1260;108709;-63
2023/09/09 05:01:33;;;;;;;20.70;5.20;;;;;;;13.34;68.27;101478.10;107341;1258;99342;-62
2023/09/09 05:04:02;;;;;;;15.40;5.00;;;;;;;13.43;67.98;101475.70;107272;1257;99169;-62
2023/09/09 05:06:31;;;;;;;16.50;5.40;;;;;;;13.50;67.65;101478.31;107349;1257;113190;-62
2023/09/09 05:08:59;;;;;;;16.90;4.70;;;;;;;13.58;67.55;101475.44;107358;1257;109901;-63
2023/09/09 05:11:28;;;;;;;10.40;4.90;;;;;;;13.65;67.07;101479.52;107276;1260;107607;-62
2023/09/09 05:13:56;;;;;;;14.40;5.30;;;;;;;13.70;66.85;101478.82;107322;1257;99287;-63
2023/09/09 05:16:24;;;;;;;12.50;5.00;;;;;;;13.77;66.60;101483.79;107257;1260;99136;-63
2023/09/09 05:18:52;;;;;;;11.00;5.10;;;;;;;13.82;65.78;101481.59;107242;1257;112604;-62
2023/09/09 05:21:21;;;;;;;10.70;4.90;;;;;;;13.82;65.34;101491.86;107352;1257;109686;-63
2023/09/09 05:23:50;;;;;;;18.00;6.30;;;;;;;13.86;65.40;101488.75;107217;1262;108380;-62
2023/09/09 05:26:19;;;;;;;17.80;4.80;;;;;;;13.94;65.37;101492.58;107217;1260;99197;-63
2023/09/09 05:28:47;;;;;;;16.60;4.50;;;;;;;13.99;64.91;101493.17;107228;1261;99294;-63
2023/09/09 05:31:16;;;;;;;20.30;5.60;;;;;;;14.04;64.64;101494.17;107343;1258;113350;-64
2023/09/09 05:33:46;;;;;;;23.50;5.60;;;;;;;14.08;64.49;101497.77;107332;1258;108671;-62
2023/09/09 05:36:15;;;;;;;32.50;11.80;;;;;;;14.13;64.38;101491.88;107387;1260;109083;-64
2023/09/09 05:38:43;;;;;;;13.30;7.40;;;;;;;14.16;64.20;101494.19;107338;1257;99070;-63
2023/09/09 05:41:11;;;;;;;9.40;4.60;;;;;;;14.21;64.03;101495.86;107233;1257;99240;-64
2023/09/09 05:43:39;;;;;;;24.80;11.30;;;;;;;14.27;64.04;101500.16;107344;1257;112801;-64
2023/09/09 05:46:08;;;;;;;14.80;5.20;;;;;;;14.32;64.03;101498.80;107338;1258;109018;-64
2023/09/09 05:48:37;;;;;;;14.60;4.70;;;;;;;14.37;63.70;101499.20;107379;1257;108632;-63
2023/09/09 05:51:06;;;;;;;16.20;5.00;;;;;;;14.43;63.73;101498.31;107210;1257;99210;-63
2023/09/09 05:53:34;;;;;;;8.80;5.00;;;;;;;14.49;63.51;101502.45;107398;1257;99930;-64
2023/09/09 05:56:04;;;;;;;17.40;5.50;;;;;;;14.54;63.45;101499.13;107402;1257;113563;-63
2023/09/09 05:58:35;;;;;;;11.60;4.20;;;;;;;14.62;63.30;101498.57;107402;1260;109935;-64
2023/09/09 06:01:03;;;;;;;11.60;5.10;;;;;;;14.70;63.28;101498.56;107389;1257;108278;-64
2023/09/09 06:03:32;;;;;;;11.50;5.20;;;;;;;14.80;63.25;101502.15;107387;1260;99179;-63
2023/09/09 06:06:02;;;;;;;11.40;5.00;;;;;;;14.90;63.21;101504.23;107346;1255;99241;-63
2023/09/09 06:08:31;;;;;;;9.90;4.20;;;;;;;15.00;63.05;101507.80;107428;1254;111869;-63
2023/09/09 06:10:59;;;;;;;12.40;4.50;;;;;;;15.11;62.61;101506.40;107281;1260;109934;-63
2023/09/09 06:13:29;;;;;;;8.30;4.50;;;;;;;15.21;62.45;101507.45;107335;1254;107843;-63
2023/09/09 06:15:58;;;;;;;10.00;5.30;;;;;;;15.28;62.22;101510.73;107339;1255;99332;-62
2023/09/09 06:18:26;;;;;;;10.50;6.00;;;;;;;15.39;62.20;101514.43;107385;1254;99594;-64
2023/09/09 06:20:55;;;;;;;16.10;5.10;;;;;;;15.49;62.09;101512.12;107279;1260;113304;-64
2023/09/09 06:23:23;;;;;;;20.50;5.90;;;;;;;15.60;61.87;101516.32;107240;1260;109738;-64
2023/09/09 06:25:51;;;;;;;12.90;5.30;;;;;;;15.70;61.75;101516.29;107362;1260;108223;-63
2023/09/09 06:28:20;;;;;;;10.20;5.50;;;;;;;15.81;61.61;101517.74;107233;1262;99310;-63
2023/09/09 06:30:51;;;;;;;20.50;6.00;;;;;;;15.90;61.50;101517.88;107320;1258;99176;-63
2023/09/09 06:33:20;;;;;;;13.20;5.20;;;;;;;16.00;61.52;101521.08;107282;1257;113546;-63
2023/09/09 06:35:50;;;;;;;11.20;5.90;;;;;;;16.10;61.26;101524.63;107360;1258;108734;-63
2023/09/09 06:38:22;;;;;;;20.90;6.20;;;;;;;16.19;61.25;101523.16;107261;1256;109277;-62
2023/09/09 06:40:50;;;;;;;14.30;6.50;;;;;;;16.28;61.19;101521.68;107361;1254;99614;-63
2023/09/09 06:43:20;;;;;;;15.50;6.50;;;;;;;16.40;61.04;101524.36;107383;1254;99182;-63
2023/09/09 06:45:48;;;;;;;11.40;6.40;;;;;;;16.50;60.87;101523.91;107354;1260;114425;-64
2023/09/09 06:48:17;;;;;;;15.80;6.80;;;;;;;16.60;60.76;101531.19;107381;1260;109689;-64
2023/09/09 06:50:47;;;;;;;16.20;5.40;;;;;;;16.69;60.42;101527.11;107351;1257;108003;-63
2023/09/09 06:53:15;;;;;;;14.30;6.10;;;;;;;16.81;60.66;101526.45;107390;1259;99236;-64
2023/09/09 06:55:45;;;;;;;13.50;5.60;;;;;;;16.94;60.41;101523.91;107446;1254;99169;-65
2023/09/09 06:58:14;;;;;;;20.40;5.80;;;;;;;17.07;60.46;101523.89;107314;1260;112027;-65
2023/09/09 07:00:49;;;;;;;12.60;5.10;;;;;;;17.19;60.70;101519.69;107248;1258;110052;-65
2023/09/09 07:03:21;;;;;;;16.50;5.60;;;;;;;17.37;60.74;101522.23;107298;1255;107459;-64
2023/09/09 07:05:50;;;;;;;11.20;5.50;;;;;;;17.51;60.22;101516.91;107390;1255;99285;-65
2023/09/09 07:08:19;;;;;;;16.60;5.60;;;;;;;17.64;60.06;101521.14;107412;1254;99278;-65
2023/09/09 07:10:51;;;;;;;13.80;5.60;;;;;;;17.76;59.57;101523.84;107381;1254;113329;-65
2023/09/09 07:13:23;;;;;;;19.80;6.00;;;;;;;17.87;59.14;101521.58;107427;1257;109576;-63
2023/09/09 07:15:53;;;;;;;25.50;6.50;;;;;;;17.98;58.58;101516.74;107390;1254;108670;-64
2023/09/09 07:18:22;;;;;;;12.20;6.30;;;;;;;18.11;58.21;101525.76;107389;1254;99269;-65
2023/09/09 07:20:50;;;;;;;12.60;5.80;;;;;;;18.24;58.02;101520.70;107343;1260;99075;-63
2023/09/09 07:23:18;;;;;;;13.90;5.20;;;;;;;18.38;57.64;101520.84;107433;1254;113052;-64
2023/09/09 07:25:47;;;;;;;12.70;5.30;;;;;;;18.52;57.57;101519.32;107420;1254;108575;-64
2023/09/09 07:28:15;;;;;;;11.70;5.20;;;;;;;18.64;57.21;101516.14;107382;1257;108622;-64
2023/09/09 07:30:44;;;;;;;14.90;5.40;;;;;;;18.79;56.68;101519.79;107391;1254;99191;-63
2023/09/09 07:33:12;;;;;;;12.10;4.60;;;;;;;18.94;56.62;101521.67;107382;1257;99186;-64
2023/09/09 07:35:41;;;;;;;11.00;5.20;;;;;;;19.11;55.97;101519.85;107434;1254;113571;-63
2023/09/09 07:38:09;;;;;;;12.10;4.90;;;;;;;19.24;55.20;101525.96;107393;1254;109753;-64
2023/09/09 07:40:38;;;;;;;10.40;4.90;;;;;;;19.36;54.59;101526.14;107298;1254;108217;-65
2023/09/09 07:43:07;;;;;;;11.40;5.40;;;;;;;19.47;54.42;101527.03;107350;1254;99267;-64
2023/09/09 07:45:46;;;;;;;18.80;6.20;;;;;;;19.58;54.18;101522.44;107391;1254;99074;-63
2023/09/09 07:48:14;;;;;;;16.70;5.50;;;;;;;19.68;53.51;101517.00;107431;1254;112572;-65
2023/09/09 07:50:54;;;;;;;16.40;5.70;;;;;;;19.78;53.58;101518.95;107431;1254;109251;-64
2023/09/09 07:53:23;;;;;;;18.60;6.00;;;;;;;19.92;53.70;101523.87;107414;1254;109627;-64
2023/09/09 07:55:52;;;;;;;13.00;5.60;;;;;;;20.15;53.75;101524.14;107411;1254;99197;-64
2023/09/09 07:58:20;;;;;;;22.50;5.60;;;;;;;20.31;53.31;101526.41;107415;1254;99074;-64
2023/09/09 08:00:57;;;;;;;15.90;5.70;;;;;;;20.48;53.18;101526.37;107432;1257;113268;-64
2023/09/09 08:03:26;;;;;;;18.10;5.30;;;;;;;20.63;51.92;101528.60;107470;1255;109491;-64
2023/09/09 08:06:02;;;;;;;14.00;4.70;;;;;;;20.80;51.97;101529.02;107368;1254;107957;-63
2023/09/09 08:08:31;;;;;;;15.20;5.40;;;;;;;20.95;51.40;101526.27;107355;1254;99195;-63
2023/09/09 08:10:59;;;;;;;9.30;5.10;;;;;;;21.09;51.01;101521.31;107395;1254;99733;-65
2023/09/09 08:13:27;;;;;;;13.50;5.60;;;;;;;21.28;50.49;101518.67;107368;1254;112742;-64
2023/09/09 08:15:57;;;;;;;17.60;4.50;;;;;;;21.50;50.04;101516.01;107387;1254;108943;-64
2023/09/09 08:18:26;;;;;;;17.60;4.30;;;;;;;21.75;49.35;101512.48;107351;1254;107041;-67
2023/09/09 08:20:54;;;;;;;13.10;4.20;;;;;;;22.01;48.68;101511.80;107381;1259;99304;-64
2023/09/09 08:23:22;;;;;;;16.30;4.40;;;;;;;22.21;48.02;101508.92;107347;1257;99079;-64
2023/09/09 08:25:51;;;;;;;12.60;4.30;;;;;;;22.40;47.03;101512.40;107363;1258;113713;-63
2023/09/09 08:28:19;;;;;;;10.70;4.40;;;;;;;22.59;46.71;101505.45;107228;1256;108915;-64
2023/09/09 08:30:48;;;;;;;7.50;4.10;;;;;;;22.79;46.41;101507.73;107281;1257;107537;-64
2023/09/09 08:33:16;;;;;;;9.90;4.40;;;;;;;23.05;46.56;101507.77;107309;1257;99665;-64
2023/09/09 08:35:45;;;;;;;7.80;4.00;;;;;;;23.32;45.82;101507.41;107371;1257;99157;-64
2023/09/09 08:38:13;;;;;;;10.20;4.50;;;;;;;23.63;45.73;101511.09;107371;1257;112329;-66
2023/09/09 08:41:23;;;;;;;10.00;4.70;;;;;;;23.90;45.23;101502.14;107358;1259;109145;-64
2023/09/09 08:43:54;;;;;;;10.60;4.80;;;;;;;24.14;43.34;101502.22;107300;1257;108406;-64
2023/09/09 08:46:24;;;;;;;20.00;4.60;;;;;;;24.25;43.29;101497.96;107341;1257;99196;-64
2023/09/09 08:48:53;;;;;;;8.90;4.30;;;;;;;24.45;42.62;101497.45;107246;1260;99095;-64
2023/09/09 08:51:30;;;;;;;12.90;4.60;;;;;;;24.54;42.05;101497.80;107349;1257;113946;-64
2023/09/09 08:53:59;;;;;;;7.90;4.30;;;;;;;24.63;42.56;101497.52;107392;1258;109574;-64
2023/09/09 08:56:28;;;;;;;19.30;4.40;;;;;;;24.79;41.88;101495.70;107199;1257;107338;-65
2023/09/09 08:58:56;;;;;;;17.10;4.60;;;;;;;24.97;41.72;101500.20;107348;1257;99186;-65
2023/09/09 09:01:26;;;;;;;9.70;4.80;;;;;;;25.18;41.07;101494.30;107364;1257;99198;-64
2023/09/09 09:03:57;;;;;;;10.40;4.20;;;;;;;25.38;40.73;101493.86;107352;1257;113496;-65
2023/09/09 09:06:26;;;;;;;9.50;3.60;;;;;;;25.58;39.99;101490.26;107348;1257;110186;-64
2023/09/09 09:08:55;;;;;;;8.60;3.20;;;;;;;25.58;39.19;101491.30;107393;1257;108278;-64
2023/09/09 09:11:23;;;;;;;8.40;3.40;;;;;;;25.76;39.32;101493.63;107306;1257;99906;-64
2023/09/09 09:13:52;;;;;;;10.00;3.30;;;;;;;25.96;38.81;101488.09;107335;1256;99275;-65
2023/09/09 09:16:20;;;;;;;7.40;4.00;;;;;;;26.22;38.63;101488.95;107398;1257;113236;-64
2023/09/09 09:18:49;;;;;;;10.40;4.20;;;;;;;26.51;38.57;101489.19;107373;1254;109240;-63
2023/09/09 09:21:18;;;;;;;7.00;3.60;;;;;;;26.88;37.89;101487.13;107365;1254;108131;-65
2023/09/09 09:23:46;;;;;;;10.20;3.40;;;;;;;27.34;37.69;101488.04;107363;1254;99284;-67
2023/09/09 09:26:26;;;;;;;8.70;3.60;;;;;;;27.98;36.29;101483.23;107382;1254;99045;-64
2023/09/09 09:28:54;;;;;;;8.20;3.10;;;;;;;28.77;34.96;101480.69;107394;1254;113485;-64
2023/09/09 09:31:24;;;;;;;8.60;3.00;;;;;;;29.33;32.60;101481.95;107358;1257;109710;-65
2023/09/09 09:33:56;;;;;;;20.80;4.40;;;;;;;29.57;31.81;101481.10;107200;1257;106845;-65
2023/09/09 09:36:26;;;;;;;7.90;3.10;;;;;;;30.10;31.76;101478.77;107335;1257;99195;-65
2023/09/09 09:38:55;;;;;;;14.80;3.80;;;;;;;30.66;30.37;101472.15;107397;1257;99204;-64
2023/09/09 09:41:29;;;;;;;10.50;3.70;;;;;;;31.07;29.61;101471.47;107384;1254;113125;-64
2023/09/09 09:43:58;;;;;;;9.90;3.70;;;;;;;31.39;29.81;101473.61;107371;1255;109223;-63
2023/09/09 09:46:26;;;;;;;14.80;3.80;;;;;;;31.81;29.16;101467.19;107262;1257;108586;-65
2023/09/09 09:49:32;;;;;;;10.10;4.50;;;;;;;32.22;28.67;101469.81;107339;1258;99167;-64
2023/09/09 09:52:02;;;;;;;13.00;3.70;;;;;;;32.81;27.83;101468.09;107328;1257;99857;-65
2023/09/09 09:54:32;;;;;;;7.10;3.10;;;;;;;33.14;27.42;101464.09;107243;1257;112371;-64
2023/09/09 09:57:02;;;;;;;7.50;3.30;;;;;;;33.51;26.45;101465.52;106711;1256;727889;-65
2023/09/09 09:59:36;;;;;;;9.70;3.50;;;;;;;33.66;25.68;101462.55;107270;1256;107223;-65
2023/09/09 10:02:05;;;;;;;8.10;3.30;;;;;;;33.94;25.50;101460.10;107369;1257;99263;-64
2023/09/09 10:04:42;;;;;;;11.20;3.00;;;;;;;34.21;24.58;101450.17;107393;1254;99717;-66
2023/09/09 10:07:16;;;;;;;9.60;3.10;;;;;;;34.36;24.93;101445.20;107366;1254;113061;-65
2023/09/09 10:09:55;;;;;;;8.10;3.20;;;;;;;34.64;25.25;101439.13;107383;1257;109549;-64
2023/09/09 10:12:55;;;;;;;11.20;2.80;;;;;;;34.93;24.58;101440.11;107347;1255;108783;-65
2023/09/09 10:15:25;;;;;;;7.50;2.40;;;;;;;35.39;22.96;101438.36;107234;1259;99217;-65
2023/09/09 10:17:55;;;;;;;6.50;2.30;;;;;;;35.47;23.48;101440.29;107415;1256;99179;-64
2023/09/09 10:20:25;;;;;;;5.20;1.80;;;;;;;35.84;22.73;101434.27;107363;1257;112998;-65
2023/09/09 10:22:59;;;;;;;5.10;2.20;;;;;;;36.14;22.84;101434.61;107407;1257;110459;-66
2023/09/09 10:25:32;;;;;;;7.20;2.10;;;;;;;36.43;20.99;101437.66;107332;1258;107658;-67
2023/09/09 10:28:02;;;;;;;7.10;2.90;;;;;;;36.53;20.05;101437.45;107332;1257;99079;-64
2023/09/09 10:30:31;;;;;;;12.70;2.10;;;;;;;36.40;19.69;101440.60;107352;1257;99704;-65
2023/09/09 10:33:01;;;;;;;6.90;2.00;;;;;;;36.33;19.77;101438.64;107344;1254;112737;-65
2023/09/09 10:35:29;;;;;;;19.00;2.10;;;;;;;36.52;19.13;101435.50;107399;1257;108833;-65
2023/09/09 10:37:59;;;;;;;12.40;2.50;;;;;;;36.56;18.25;101435.12;107364;1257;107231;-64
2023/09/09 10:40:28;;;;;;;8.30;1.80;;;;;;;36.47;18.22;101435.20;107320;1257;99186;-64
2023/09/09 10:42:57;;;;;;;2.60;1.40;;;;;;;36.34;18.96;101434.33;107357;1258;99298;-65
2023/09/09 10:45:28;;;;;;;3.70;1.70;;;;;;;36.54;19.06;101439.05;107368;1256;112690;-65
2023/09/09 10:48:07;;;;;;;6.80;1.60;;;;;;;36.97;18.48;101434.15;107358;1257;110054;-66
2023/09/09 10:50:40;;;;;;;4.20;1.40;;;;;;;37.32;17.51;101437.64;107386;1257;108392;-66
2023/09/09 10:53:27;;;;;;;9.20;1.40;;;;;;;37.42;17.36;101439.41;107336;1257;99288;-64
2023/09/09 10:56:01;;;;;;;4.20;1.60;;;;;;;37.62;17.75;101441.08;107344;1257;99159;-65
2023/09/09 10:58:34;;;;;;;7.60;1.70;;;;;;;38.05;16.21;101438.41;107358;1257;113661;-64
2023/09/09 11:01:05;;;;;;;6.30;1.70;;;;;;;37.87;16.28;101437.39;107326;1254;109647;-65
2023/09/09 11:03:51;;;;;;;4.50;1.60;;;;;;;37.66;16.96;101442.38;107378;1257;108165;-65
2023/09/09 11:06:33;;;;;;;5.30;1.40;;;;;;;37.77;16.94;101440.73;107454;1254;99175;-65
2023/09/09 11:09:02;;;;;;;6.50;1.70;;;;;;;37.93;17.09;101424.40;107410;1254;99055;-65
2023/09/09 11:11:42;;;;;;;5.90;1.40;;;;;;;38.00;16.68;101429.67;107437;1254;113564;-65
2023/09/09 11:14:10;;;;;;;4.80;1.40;;;;;;;37.88;16.46;101431.64;107451;1257;110157;-66
2023/09/09 11:16:40;;;;;;;4.70;1.60;;;;;;;38.08;16.66;101430.27;107457;1254;108450;-65
2023/09/09 11:19:15;;;;;;;2.30;1.30;;;;;;;38.35;16.18;101430.81;107410;1254;99208;-65